Columbia Falls, Maine
Current Conditions -  °F | °C
As of 9:35 PM on Saturday 20 Dec 2014 (Local Time) from KBHB Reporting Station
Overcast Overcast  
Wind Chill: 27°   Ceiling: 2600
Heat Index: 27°   Visibility: 10mi
Dew Point: 25°   Wind: 3mph
Humidity: 93%   Direction: 340°NNW
Pressure: 30.35"   Gusts: NA
Location:  44.65°N, 67.73°W
Report Text: KBHB 210235Z AUTO 34003KT 10SM OVC026 M03/M04 A3035 RMK AO1
Loading
Personal Weather Stations






























Interactive Weather Map New forecast layout! Learn more

10-Day Weather Forecast

Advertisements
Track Severe Weather on mobile